createdAt,value
2022-11-08T00:01:33.881Z,9.03
2022-11-08T00:01:44.047Z,9.04
2022-11-08T00:01:53.988Z,9.03
2022-11-08T00:02:03.934Z,9.04
2022-11-08T00:02:14.004Z,9.04
2022-11-08T00:02:23.893Z,9.06
2022-11-08T00:02:33.951Z,9.06
2022-11-08T00:02:43.965Z,9.04
2022-11-08T00:02:53.880Z,9.06
2022-11-08T00:03:03.907Z,9.08
2022-11-08T00:03:14.040Z,9.08
2022-11-08T00:03:23.878Z,9.08
2022-11-08T00:03:33.837Z,9.06
2022-11-08T00:03:43.847Z,9.10
2022-11-08T00:03:53.845Z,9.04
2022-11-08T00:04:03.839Z,9.08
2022-11-08T00:04:13.874Z,9.08
2022-11-08T00:04:23.846Z,9.08
2022-11-08T00:04:33.844Z,9.08
2022-11-08T00:04:43.846Z,9.04
2022-11-08T00:04:53.851Z,9.08
2022-11-08T00:05:03.849Z,9.06
2022-11-08T00:05:13.856Z,9.06
2022-11-08T00:05:23.879Z,9.08
2022-11-08T00:05:33.852Z,9.06
2022-11-08T00:05:43.852Z,9.06
2022-11-08T00:05:53.849Z,9.08
2022-11-08T00:06:03.850Z,9.10
2022-11-08T00:06:13.857Z,9.10
2022-11-08T00:06:23.871Z,9.06
2022-11-08T00:06:33.861Z,9.06
2022-11-08T00:06:43.867Z,9.06
2022-11-08T00:06:53.856Z,9.10
2022-11-08T00:07:03.877Z,9.10
2022-11-08T00:07:13.858Z,9.08
2022-11-08T00:07:23.856Z,9.12
2022-11-08T00:07:33.883Z,9.10
2022-11-08T00:07:43.865Z,9.06
2022-11-08T00:07:53.866Z,9.08
2022-11-08T00:08:03.862Z,9.08
2022-11-08T00:08:14.131Z,9.10
2022-11-08T00:08:23.864Z,9.10
2022-11-08T00:08:33.880Z,9.08
2022-11-08T00:08:43.863Z,9.08
2022-11-08T00:08:53.874Z,9.08
2022-11-08T00:09:03.868Z,9.06
2022-11-08T00:09:13.882Z,9.08
2022-11-08T00:09:23.866Z,9.10
2022-11-08T00:09:33.874Z,9.12
2022-11-08T00:09:43.866Z,9.10
2022-11-08T00:12:32.716Z,9.10
2022-11-08T00:12:42.685Z,9.10
2022-11-08T00:12:52.666Z,9.08
2022-11-08T00:13:02.715Z,9.10
2022-11-08T00:13:12.666Z,9.06
2022-11-08T00:13:22.673Z,9.10
2022-11-08T00:13:32.669Z,9.08
2022-11-08T00:13:42.671Z,9.08
2022-11-08T00:13:52.670Z,9.08
2022-11-08T00:14:02.680Z,9.08
2022-11-08T00:14:12.717Z,9.08
2022-11-08T00:14:22.684Z,9.08
2022-11-08T00:14:32.680Z,9.06
2022-11-08T00:14:42.692Z,9.08
2022-11-08T00:14:52.677Z,9.10
2022-11-08T00:15:02.699Z,9.10
2022-11-08T00:15:12.678Z,9.10
2022-11-08T00:15:22.680Z,9.08
2022-11-08T00:15:32.708Z,9.10
2022-11-08T00:15:42.680Z,9.10
2022-11-08T00:15:52.696Z,9.08
2022-11-08T00:16:02.686Z,9.06
2022-11-08T00:16:12.684Z,9.10
2022-11-08T00:16:22.701Z,9.06
2022-11-08T00:16:32.695Z,9.08
2022-11-08T00:16:42.695Z,9.10
2022-11-08T00:16:52.695Z,9.06
2022-11-08T00:17:02.696Z,9.08
2022-11-08T00:17:12.692Z,9.10
2022-11-08T00:17:22.698Z,9.10
2022-11-08T00:35:40.728Z,8.98
2022-11-08T00:35:50.789Z,8.98
2022-11-08T00:36:00.926Z,8.98
2022-11-08T00:36:10.728Z,9.00
2022-11-08T00:45:25.776Z,8.93
2022-11-08T00:48:28.695Z,8.96
2022-11-08T00:48:29.043Z,8.93
2022-11-08T00:48:39.002Z,8.96
2022-11-08T00:48:49.020Z,8.97
2022-11-08T00:48:59.011Z,8.94
2022-11-08T00:49:09.014Z,8.93
2022-11-08T00:49:19.012Z,8.96
2022-11-08T00:49:29.015Z,8.94
2022-11-08T00:49:39.012Z,8.96
2022-11-08T00:49:49.032Z,8.96
2022-11-08T00:49:59.018Z,8.96
2022-11-08T00:50:09.021Z,8.94
2022-11-08T00:50:19.023Z,8.93
2022-11-08T00:50:29.024Z,8.96
2022-11-08T00:50:39.032Z,8.96
2022-11-08T00:50:49.110Z,8.97
2022-11-08T00:50:59.020Z,8.97
2022-11-08T00:51:09.016Z,8.97
2022-11-08T00:51:19.019Z,8.97
2022-11-08T00:51:29.025Z,8.94
2022-11-08T00:51:39.020Z,8.94
2022-11-08T00:51:49.037Z,8.94
2022-11-08T00:51:59.024Z,8.96
2022-11-08T00:52:09.025Z,8.96
2022-11-08T00:52:19.026Z,8.96
2022-11-08T00:52:29.031Z,8.96
2022-11-08T00:52:39.025Z,8.96
2022-11-08T00:52:49.028Z,8.97
2022-11-08T00:52:59.047Z,8.96
2022-11-08T00:53:09.031Z,8.97
2022-11-08T00:53:19.029Z,8.96
2022-11-08T00:53:29.229Z,8.97
2022-11-08T00:53:39.030Z,8.96
2022-11-08T00:53:49.036Z,8.97
2022-11-08T00:53:59.068Z,8.97
2022-11-08T00:54:09.037Z,8.98
2022-11-08T00:54:19.019Z,8.98
2022-11-08T00:54:29.053Z,8.96
2022-11-08T00:54:39.039Z,8.98
2022-11-08T00:54:49.033Z,8.97
2022-11-08T00:54:59.060Z,8.98
2022-11-08T00:55:09.044Z,8.97
2022-11-08T00:55:19.040Z,8.98
2022-11-08T00:55:29.053Z,9.00
2022-11-08T00:55:39.045Z,8.97
2022-11-08T00:55:49.043Z,8.98
2022-11-08T00:55:59.073Z,9.00
2022-11-08T00:56:09.042Z,8.98
2022-11-08T00:56:19.044Z,8.98
2022-11-08T00:56:29.068Z,8.98
2022-11-08T00:56:39.045Z,8.97
2022-11-08T00:56:49.047Z,8.98
2022-11-08T00:56:59.067Z,8.96
2022-11-08T00:57:09.047Z,8.97
2022-11-08T00:57:22.257Z,8.97
2022-11-08T00:57:53.590Z,8.98
2022-11-08T00:57:58.504Z,8.98
2022-11-08T00:58:00.681Z,8.97
2022-11-08T00:58:01.278Z,8.96
2022-11-08T00:58:09.050Z,9.00
2022-11-08T00:58:22.320Z,8.97
2022-11-08T00:58:30.208Z,8.97
2022-11-08T00:58:39.068Z,8.98
2022-11-08T00:58:49.061Z,8.98
2022-11-08T00:58:59.057Z,8.98
2022-11-08T00:59:09.060Z,8.98
2022-11-08T00:59:19.064Z,8.98
2022-11-08T00:59:29.075Z,8.98
2022-11-08T00:59:39.061Z,8.98
2022-11-08T00:59:49.077Z,8.98
2022-11-08T00:59:59.071Z,8.98
2022-11-08T01:00:09.079Z,8.98
2022-11-08T01:00:19.071Z,8.97
2022-11-08T01:00:29.073Z,9.00
2022-11-08T01:00:39.071Z,9.00
2022-11-08T01:00:49.110Z,8.98
2022-11-08T01:00:59.152Z,9.00
2022-11-08T01:01:09.159Z,9.00
2022-11-08T01:01:19.145Z,9.01
2022-11-08T01:01:29.181Z,9.01
2022-11-08T01:01:39.234Z,9.03
2022-11-08T01:01:49.215Z,9.00
2022-11-08T01:01:59.201Z,9.01
2022-11-08T01:02:09.295Z,9.00
2022-11-08T01:02:19.106Z,9.00
2022-11-08T01:02:29.123Z,9.00
2022-11-08T01:02:39.109Z,9.00
2022-11-08T01:02:49.099Z,9.01
2022-11-08T01:02:59.110Z,9.01
2022-11-08T01:03:09.084Z,9.01
2022-11-08T01:03:19.084Z,9.03
2022-11-08T01:03:29.091Z,9.01
2022-11-08T01:03:39.084Z,9.00
2022-11-08T01:03:49.095Z,9.00
2022-11-08T01:03:59.096Z,9.00
2022-11-08T01:04:09.101Z,8.98
2022-11-08T01:04:19.093Z,8.97
2022-11-08T01:04:29.098Z,9.00
2022-11-08T01:04:39.096Z,8.98
2022-11-08T01:04:49.101Z,9.00
2022-11-08T01:04:59.110Z,9.00
2022-11-08T01:05:09.092Z,9.00
2022-11-08T01:05:19.092Z,8.98
2022-11-08T01:05:29.118Z,8.98
2022-11-08T01:05:39.102Z,9.00
2022-11-08T01:05:49.108Z,9.00
2022-11-08T01:05:59.098Z,8.98
2022-11-08T01:06:09.135Z,8.98
2022-11-08T01:06:19.117Z,9.00
2022-11-08T01:06:29.100Z,8.98
2022-11-08T01:06:39.095Z,9.01
2022-11-08T01:06:49.106Z,9.00
2022-11-08T01:06:59.099Z,9.00
2022-11-08T01:07:09.100Z,9.00
2022-11-08T01:07:19.116Z,9.01
2022-11-08T01:07:29.103Z,9.01
2022-11-08T01:07:39.106Z,9.00
2022-11-08T01:07:49.107Z,9.01
2022-11-08T01:07:59.116Z,8.98
2022-11-08T01:08:09.114Z,8.98
2022-11-08T01:08:19.578Z,9.00
2022-11-08T01:08:29.112Z,9.00
2022-11-08T01:08:39.105Z,8.98
2022-11-08T01:08:49.108Z,8.98
2022-11-08T01:08:59.114Z,8.98
2022-11-08T01:09:09.108Z,8.98
2022-11-08T01:09:19.109Z,8.98
2022-11-08T01:09:29.142Z,9.01
2022-11-08T01:09:39.121Z,8.97
2022-11-08T01:09:49.108Z,9.00
2022-11-08T01:09:59.110Z,8.98
2022-11-08T01:10:09.112Z,8.98
2022-11-08T01:10:19.316Z,9.01
2022-11-08T01:10:29.118Z,9.00
2022-11-08T01:10:39.100Z,9.01
2022-11-08T01:10:49.139Z,9.01
2022-11-08T01:10:59.119Z,9.01
2022-11-08T01:11:09.119Z,9.01
2022-11-08T01:11:19.119Z,9.03
2022-11-08T01:11:29.131Z,9.01
2022-11-08T01:11:39.129Z,9.01
2022-11-08T01:11:49.133Z,9.01
2022-11-08T01:11:59.120Z,9.01
2022-11-08T01:12:09.145Z,9.04
2022-11-08T01:12:19.137Z,9.03
2022-11-08T01:12:29.124Z,9.03
2022-11-08T01:12:39.122Z,9.03
2022-11-08T01:12:49.133Z,9.04
2022-11-08T01:12:59.131Z,9.04
2022-11-08T01:13:09.129Z,9.04
2022-11-08T01:13:19.136Z,9.04
2022-11-08T01:13:29.166Z,9.01
2022-11-08T01:13:39.133Z,9.04
2022-11-08T01:13:49.135Z,9.01
2022-11-08T01:13:59.175Z,9.01
2022-11-08T01:14:09.135Z,9.00
2022-11-08T01:14:19.143Z,9.00
2022-11-08T01:14:29.151Z,8.98
2022-11-08T01:14:39.145Z,8.98
2022-11-08T01:14:49.154Z,9.00
2022-11-08T01:14:59.208Z,9.00
2022-11-08T01:15:09.177Z,8.98
2022-11-08T01:15:19.193Z,8.97
2022-11-08T01:15:29.240Z,8.97
2022-11-08T01:15:39.232Z,8.98
2022-11-08T01:15:49.221Z,8.97
2022-11-08T01:15:59.149Z,8.96
2022-11-08T01:16:09.142Z,8.97
2022-11-08T01:16:19.176Z,8.97
2022-11-08T01:16:29.151Z,8.97
2022-11-08T01:16:39.149Z,8.96
2022-11-08T01:16:49.174Z,8.97
2022-11-08T01:16:59.144Z,8.94
2022-11-08T01:17:09.146Z,8.96
2022-11-08T01:17:19.155Z,8.94
2022-11-08T01:17:29.151Z,8.94
2022-11-08T01:17:39.148Z,8.96
2022-11-08T01:17:49.167Z,8.94
2022-11-08T01:17:59.153Z,8.94
2022-11-08T01:18:09.149Z,8.96
2022-11-08T01:18:19.555Z,8.94
2022-11-08T01:18:29.156Z,8.96
2022-11-08T01:18:39.159Z,8.96
2022-11-08T01:18:49.164Z,8.94
2022-11-08T01:18:59.180Z,8.96
2022-11-08T01:19:09.165Z,8.94
2022-11-08T01:19:19.168Z,8.91
2022-11-08T01:19:29.160Z,8.94
2022-11-08T01:19:39.168Z,8.93
2022-11-08T01:19:49.167Z,8.96
2022-11-08T01:19:59.158Z,8.94
2022-11-08T01:20:09.185Z,8.93
2022-11-08T01:20:19.172Z,8.94
2022-11-08T01:20:29.169Z,8.94
2022-11-08T01:20:39.356Z,8.97
2022-11-08T01:20:49.174Z,8.94
2022-11-08T01:20:59.170Z,8.96
2022-11-08T01:21:09.183Z,8.98
2022-11-08T01:21:19.196Z,8.97
2022-11-08T01:21:29.170Z,8.97
2022-11-08T01:21:39.174Z,8.97
2022-11-08T01:21:49.183Z,8.96
2022-11-08T01:21:59.175Z,8.98
2022-11-08T01:22:09.173Z,8.98
2022-11-08T01:22:19.198Z,8.98
2022-11-08T01:22:29.175Z,8.98
2022-11-08T01:22:39.195Z,9.00
2022-11-08T01:22:49.175Z,9.00
2022-11-08T01:22:59.186Z,9.00
2022-11-08T01:23:09.185Z,8.98
2022-11-08T01:23:19.195Z,9.00
2022-11-08T01:23:29.232Z,8.97
2022-11-08T01:23:39.183Z,8.97
2022-11-08T01:23:49.371Z,8.96
2022-11-08T01:23:59.189Z,8.97
2022-11-08T01:24:09.183Z,8.96
2022-11-08T01:24:19.181Z,8.97
2022-11-08T01:24:29.209Z,8.96
2022-11-08T01:24:39.192Z,8.93
2022-11-08T01:24:49.187Z,8.94
2022-11-08T01:24:59.186Z,8.96
2022-11-08T01:25:09.201Z,8.96
2022-11-08T01:25:19.187Z,8.97
2022-11-08T01:25:29.194Z,8.96
2022-11-08T01:25:39.217Z,8.94
2022-11-08T01:25:49.204Z,8.94
2022-11-08T01:25:59.192Z,8.94
2022-11-08T01:26:09.393Z,8.94
2022-11-08T01:26:19.195Z,8.96
2022-11-08T01:26:29.195Z,8.93
2022-11-08T01:26:39.208Z,8.94
2022-11-08T01:26:49.195Z,8.93
2022-11-08T01:26:59.217Z,8.89
2022-11-08T01:27:09.202Z,8.91
2022-11-08T01:27:19.212Z,8.89
2022-11-08T01:27:29.220Z,8.89
2022-11-08T01:27:39.205Z,8.89
2022-11-08T01:27:49.203Z,8.89
2022-11-08T01:27:59.205Z,8.88
2022-11-08T01:28:09.218Z,8.86
2022-11-08T01:28:19.641Z,8.85
2022-11-08T01:28:29.223Z,8.88
2022-11-08T01:28:39.205Z,8.85
2022-11-08T01:28:49.212Z,8.86
2022-11-08T01:28:59.208Z,8.88
2022-11-08T01:29:09.212Z,8.86
2022-11-08T01:29:19.209Z,8.86
2022-11-08T01:29:29.232Z,8.86
2022-11-08T01:29:39.217Z,8.85
2022-11-08T01:29:49.216Z,8.88
2022-11-08T01:29:59.216Z,8.88
2022-11-08T01:30:09.213Z,8.86
2022-11-08T01:30:19.222Z,8.86
2022-11-08T01:30:29.240Z,8.85
2022-11-08T01:30:39.213Z,8.86
2022-11-08T01:30:49.219Z,8.85
2022-11-08T01:30:59.215Z,8.85
2022-11-08T01:31:09.233Z,8.85
2022-11-08T01:31:19.223Z,8.86
2022-11-08T01:31:29.235Z,8.85
2022-11-08T01:31:39.224Z,8.86
2022-11-08T01:31:49.225Z,8.88
2022-11-08T01:31:59.222Z,8.88
2022-11-08T01:32:09.220Z,8.86
2022-11-08T01:32:19.221Z,8.86
2022-11-08T01:32:29.240Z,8.86
2022-11-08T01:32:39.224Z,8.88
2022-11-08T01:32:49.236Z,8.85
2022-11-08T01:32:59.229Z,8.86
2022-11-08T01:33:09.229Z,8.86
2022-11-08T01:33:19.235Z,8.85
2022-11-08T01:33:29.224Z,8.85
2022-11-08T01:33:39.791Z,8.86
2022-11-08T01:38:28.477Z,8.80
2022-11-08T01:38:38.454Z,8.82
2022-11-08T01:38:48.469Z,8.82
2022-11-08T01:38:58.455Z,8.83
2022-11-08T01:39:08.464Z,8.82
2022-11-08T01:39:18.500Z,8.80
2022-11-08T01:39:28.474Z,8.79
2022-11-08T01:39:38.649Z,8.82
2022-11-08T01:39:48.465Z,8.79
2022-11-08T01:39:58.459Z,8.79
2022-11-08T01:40:08.476Z,8.80
2022-11-08T01:40:18.466Z,8.80
2022-11-08T01:40:28.468Z,8.79
2022-11-08T01:40:38.472Z,8.80
2022-11-08T01:40:48.469Z,8.80
2022-11-08T01:40:58.467Z,8.82
2022-11-08T01:41:08.474Z,8.82
2022-11-08T01:41:18.469Z,8.82
2022-11-08T01:41:28.495Z,8.79
2022-11-08T01:41:38.665Z,8.82
2022-11-08T01:41:48.475Z,8.79
2022-11-08T01:41:58.473Z,8.80
2022-11-08T01:42:08.482Z,8.83
2022-11-08T01:42:18.474Z,8.80
2022-11-08T01:42:28.479Z,8.79
2022-11-08T01:42:38.476Z,8.80
2022-11-08T01:42:48.524Z,8.80
2022-11-08T01:42:58.479Z,8.79
2022-11-08T01:43:08.476Z,8.79
2022-11-08T01:43:18.481Z,8.80
2022-11-08T01:43:28.474Z,8.80
2022-11-08T01:43:38.479Z,8.80
2022-11-08T01:43:48.512Z,8.79
2022-11-08T01:43:58.478Z,8.80
2022-11-08T01:44:08.480Z,8.79
2022-11-08T01:44:18.484Z,8.80
2022-11-08T01:44:28.486Z,8.79
2022-11-08T01:44:38.484Z,8.82
2022-11-08T01:44:48.480Z,8.80
2022-11-08T01:44:58.524Z,8.82
2022-11-08T01:45:08.485Z,8.80
2022-11-08T01:45:18.491Z,8.79
2022-11-08T01:45:28.502Z,8.80
2022-11-08T01:45:38.486Z,8.80
2022-11-08T01:45:48.484Z,8.82
2022-11-08T01:45:58.493Z,8.82
2022-11-08T01:46:08.491Z,8.80
2022-11-08T01:46:18.518Z,8.82
2022-11-08T01:46:28.489Z,8.82
2022-11-08T01:46:38.518Z,8.82
2022-11-08T01:46:48.491Z,8.80
2022-11-08T01:46:58.488Z,8.83
2022-11-08T01:47:08.502Z,8.82
2022-11-08T01:47:18.495Z,8.83
2022-11-08T01:47:28.502Z,8.83
2022-11-08T01:47:38.500Z,8.82
2022-11-08T01:47:48.500Z,8.83
2022-11-08T01:47:58.533Z,8.83
2022-11-08T01:48:08.506Z,8.82
2022-11-08T01:48:18.952Z,8.83
2022-11-08T01:48:28.514Z,8.80
2022-11-08T01:48:38.511Z,8.83
2022-11-08T01:48:48.508Z,8.80
2022-11-08T01:48:58.502Z,8.82
2022-11-08T01:49:08.533Z,8.82
2022-11-08T01:49:18.517Z,8.82
2022-11-08T01:49:28.504Z,8.80
2022-11-08T01:49:38.516Z,8.79
2022-11-08T01:49:48.518Z,8.82
2022-11-08T01:49:58.508Z,8.80
2022-11-08T01:50:08.526Z,8.82
2022-11-08T01:50:18.537Z,8.82
2022-11-08T01:50:28.519Z,8.82
2022-11-08T01:50:38.539Z,8.82
2022-11-08T01:50:48.523Z,8.82
2022-11-08T01:50:58.517Z,8.83
2022-11-08T01:51:08.523Z,8.82
2022-11-08T01:51:18.533Z,8.82
2022-11-08T01:51:28.514Z,8.82
2022-11-08T01:51:38.528Z,8.82
2022-11-08T01:51:48.518Z,8.82
2022-11-08T01:51:58.516Z,8.82
2022-11-08T01:52:08.525Z,8.82
2022-11-08T01:52:18.540Z,8.80
2022-11-08T01:52:28.518Z,8.83
2022-11-08T01:52:38.521Z,8.82
2022-11-08T01:52:48.522Z,8.82
2022-11-08T01:52:58.535Z,8.82
2022-11-08T01:53:08.531Z,8.82
2022-11-08T01:53:18.526Z,8.83
2022-11-08T01:55:16.389Z,8.80
2022-11-08T01:55:26.305Z,8.79
2022-11-08T01:55:36.307Z,8.78
2022-11-08T01:55:46.296Z,8.80
2022-11-08T01:55:56.353Z,8.79
2022-11-08T01:56:06.305Z,8.80
2022-11-08T01:56:16.302Z,8.80
2022-11-08T01:56:26.301Z,8.78
2022-11-08T01:56:36.314Z,8.80
2022-11-08T01:56:46.365Z,8.79
2022-11-08T01:56:56.302Z,8.80
2022-11-08T01:57:06.316Z,8.80
2022-11-08T01:57:16.330Z,8.82
2022-11-08T01:57:26.312Z,8.82
2022-11-08T01:57:36.317Z,8.80
2022-11-08T01:57:46.402Z,8.80
2022-11-08T01:57:56.313Z,8.79
2022-11-08T01:58:06.320Z,8.82
2022-11-08T01:58:16.689Z,8.82
2022-11-08T01:58:26.309Z,8.80
2022-11-08T01:58:36.328Z,8.79
2022-11-08T01:58:46.399Z,8.80
2022-11-08T01:58:56.320Z,8.82
2022-11-08T01:59:06.320Z,8.80
2022-11-08T01:59:16.322Z,8.82
2022-11-08T01:59:26.320Z,8.82
2022-11-08T01:59:36.325Z,8.82
2022-11-08T01:59:46.318Z,8.82
2022-11-08T01:59:56.321Z,8.83
2022-11-08T02:00:06.390Z,8.79
2022-11-08T02:00:16.323Z,8.80
2022-11-08T02:00:26.321Z,8.80
2022-11-08T02:00:36.333Z,8.80
2022-11-08T02:00:46.326Z,8.82
2022-11-08T02:00:56.406Z,8.82
2022-11-08T02:01:06.360Z,8.80
2022-11-08T02:01:16.382Z,8.80
2022-11-08T02:01:26.458Z,8.80
2022-11-08T02:01:36.480Z,8.83
2022-11-08T02:01:46.408Z,8.80
2022-11-08T02:01:56.488Z,8.82
2022-11-08T02:02:06.571Z,8.82
2022-11-08T02:02:16.402Z,8.82
2022-11-08T02:02:26.364Z,8.83
2022-11-08T02:02:36.496Z,8.86
2022-11-08T02:02:46.335Z,8.82
2022-11-08T02:02:56.340Z,8.82
2022-11-08T02:03:06.348Z,8.83
2022-11-08T02:03:16.344Z,8.83
2022-11-08T02:07:23.071Z,8.82
2022-11-08T02:07:33.090Z,8.80
2022-11-08T02:07:43.071Z,8.80
2022-11-08T02:07:53.068Z,8.82
2022-11-08T02:08:03.092Z,8.82
2022-11-08T02:08:13.073Z,8.83
2022-11-08T02:08:23.072Z,8.83
2022-11-08T02:08:33.073Z,8.82
2022-11-08T02:08:43.081Z,8.82
2022-11-08T02:08:53.076Z,8.82
2022-11-08T02:09:03.122Z,8.83
2022-11-08T02:09:13.082Z,8.82
2022-11-08T02:09:23.079Z,8.82
2022-11-08T02:09:33.086Z,8.83
2022-11-08T02:09:43.082Z,8.85
2022-11-08T02:09:53.084Z,8.83
2022-11-08T02:10:03.084Z,8.83
2022-11-08T02:10:13.085Z,8.83
2022-11-08T02:10:23.087Z,8.85
2022-11-08T02:10:33.082Z,8.83
2022-11-08T02:10:43.086Z,8.85
2022-11-08T02:10:53.117Z,8.86
2022-11-08T02:11:03.081Z,8.86
2022-11-08T02:11:13.085Z,8.85
2022-11-08T02:11:23.122Z,8.85
2022-11-08T02:11:33.083Z,8.88
2022-11-08T02:11:43.085Z,8.83
2022-11-08T02:11:53.095Z,8.86
2022-11-08T02:12:03.302Z,8.85
2022-11-08T02:12:13.093Z,8.86
2022-11-08T02:12:23.109Z,8.83
2022-11-08T02:12:33.107Z,8.83
2022-11-08T02:12:43.096Z,8.83
2022-11-08T02:12:53.094Z,8.82
2022-11-08T02:13:05.262Z,8.83
2022-11-08T02:13:14.955Z,8.83
2022-11-08T02:13:23.100Z,8.82
2022-11-08T02:13:33.102Z,8.82
2022-11-08T02:13:43.098Z,8.83
2022-11-08T02:13:53.117Z,8.82
2022-11-08T02:14:03.100Z,8.82
2022-11-08T02:14:13.095Z,8.80
2022-11-08T02:14:23.110Z,8.83
2022-11-08T02:14:33.107Z,8.82
2022-11-08T02:14:43.113Z,8.83
2022-11-08T02:14:53.114Z,8.80
2022-11-08T02:15:03.101Z,8.82
2022-11-08T02:15:13.104Z,8.82
2022-11-08T02:15:23.140Z,8.82
2022-11-08T02:15:33.113Z,8.83
2022-11-08T02:15:43.104Z,8.85
2022-11-08T02:15:53.119Z,8.85
2022-11-08T02:16:03.117Z,8.85
2022-11-08T02:16:13.122Z,8.83
2022-11-08T02:16:23.125Z,8.83
2022-11-08T02:16:33.131Z,8.83
2022-11-08T02:16:43.114Z,8.83
2022-11-08T02:16:53.111Z,8.83
2022-11-08T02:17:03.113Z,8.85
2022-11-08T02:17:13.112Z,8.82
2022-11-08T02:17:23.130Z,8.82
2022-11-08T02:17:33.142Z,8.82
2022-11-08T02:17:43.119Z,8.80
2022-11-08T02:17:53.122Z,8.80
2022-11-08T02:18:03.125Z,8.80
2022-11-08T02:27:33.798Z,8.85
2022-11-08T02:27:34.198Z,8.80
2022-11-08T02:27:44.140Z,8.83
2022-11-08T02:27:54.139Z,8.83
2022-11-08T02:28:04.219Z,8.82
2022-11-08T02:28:14.256Z,8.83
2022-11-08T02:28:24.138Z,8.83
2022-11-08T02:28:34.156Z,8.83
2022-11-08T02:28:44.143Z,8.83
2022-11-08T02:28:54.144Z,8.83
2022-11-08T02:29:04.159Z,8.83
2022-11-08T02:29:14.166Z,8.85
2022-11-08T02:29:24.151Z,8.83
2022-11-08T02:29:34.149Z,8.83
2022-11-08T02:29:44.158Z,8.85
2022-11-08T02:29:54.187Z,8.85
2022-11-08T02:30:04.152Z,8.85
2022-11-08T02:30:14.153Z,8.86
2022-11-08T02:30:24.154Z,8.85
2022-11-08T02:30:34.153Z,8.85
2022-11-08T02:30:44.158Z,8.88
2022-11-08T02:30:54.154Z,8.88
2022-11-08T02:31:04.160Z,8.88
2022-11-08T02:31:14.158Z,8.86
2022-11-08T02:31:24.220Z,8.85
2022-11-08T02:31:34.168Z,8.86
2022-11-08T02:31:44.163Z,8.88
2022-11-08T02:31:54.167Z,8.86
2022-11-08T02:32:04.159Z,8.86
2022-11-08T02:32:14.164Z,8.86
2022-11-08T02:32:24.166Z,8.89
2022-11-08T02:32:34.168Z,8.88
2022-11-08T02:32:44.169Z,8.88
2022-11-08T02:32:54.222Z,8.88
2022-11-08T02:33:04.192Z,8.85
2022-11-08T02:33:14.176Z,8.83
2022-11-08T02:33:24.175Z,8.85
2022-11-08T02:33:34.169Z,8.85
2022-11-08T02:33:44.176Z,8.83
2022-11-08T02:33:54.171Z,8.83
2022-11-08T02:34:04.186Z,8.83
2022-11-08T02:34:14.177Z,8.85
2022-11-08T02:34:24.179Z,8.83
2022-11-08T02:34:34.192Z,8.83
2022-11-08T02:34:44.252Z,8.85
2022-11-08T02:34:54.178Z,8.83
2022-11-08T02:35:04.185Z,8.83
2022-11-08T02:35:14.177Z,8.82
2022-11-08T02:35:24.183Z,8.83
2022-11-08T02:35:34.179Z,8.82
2022-11-08T02:35:44.187Z,8.82
2022-11-08T02:35:54.230Z,8.80
2022-11-08T02:36:04.187Z,8.79
2022-11-08T02:36:14.181Z,8.82
2022-11-08T02:36:24.188Z,8.79
2022-11-08T02:36:34.187Z,8.78
2022-11-08T02:36:44.186Z,8.80
2022-11-08T02:36:54.252Z,8.79
2022-11-08T02:37:04.206Z,8.80
2022-11-08T02:37:14.191Z,8.79
2022-11-08T02:37:24.192Z,8.79
2022-11-08T02:37:34.193Z,8.79
2022-11-08T02:37:44.196Z,8.79
2022-11-08T02:37:54.263Z,8.78
2022-11-08T02:38:04.218Z,8.80
2022-11-08T02:38:14.364Z,8.79
2022-11-08T02:38:24.199Z,8.80
2022-11-08T02:38:34.206Z,8.80
2022-11-08T02:38:44.201Z,8.82
2022-11-08T02:38:54.212Z,8.82
2022-11-08T02:39:04.199Z,8.80
2022-11-08T02:39:14.252Z,8.82
2022-11-08T02:39:24.204Z,8.80
2022-11-08T02:39:34.224Z,8.80
2022-11-08T02:39:44.218Z,8.83
2022-11-08T02:39:54.210Z,8.82
2022-11-08T02:40:04.209Z,8.82
2022-11-08T02:40:14.254Z,8.85
2022-11-08T02:40:24.211Z,8.83
2022-11-08T02:40:34.291Z,8.83
2022-11-08T02:40:44.211Z,8.83
2022-11-08T02:40:54.218Z,8.85
2022-11-08T02:41:04.218Z,8.85
2022-11-08T02:41:14.215Z,8.85
2022-11-08T02:41:24.217Z,8.85
2022-11-08T02:41:34.293Z,8.86
2022-11-08T02:41:44.231Z,8.86
2022-11-08T02:41:54.233Z,8.85
2022-11-08T02:42:04.221Z,8.85
2022-11-08T02:42:14.237Z,8.85
2022-11-08T02:42:24.233Z,8.86
2022-11-08T02:42:34.219Z,8.85
2022-11-08T02:42:44.230Z,8.85
2022-11-08T02:42:54.423Z,8.85
2022-11-08T02:43:04.320Z,8.86
2022-11-08T02:43:14.230Z,8.88
2022-11-08T02:43:24.227Z,8.86
2022-11-08T02:43:34.222Z,8.85
2022-11-08T02:43:44.233Z,8.85
2022-11-08T02:43:54.230Z,8.86
2022-11-08T02:44:04.231Z,8.86
2022-11-08T02:44:14.293Z,8.85
2022-11-08T02:44:24.231Z,8.83
2022-11-08T02:44:34.217Z,8.85
2022-11-08T02:44:44.233Z,8.86
2022-11-08T02:44:54.250Z,8.85
2022-11-08T02:45:04.243Z,8.86
2022-11-08T02:45:14.317Z,8.85
2022-11-08T02:45:24.236Z,8.88
2022-11-08T02:45:34.232Z,8.83
2022-11-08T03:10:36.035Z,8.71
2022-11-08T03:10:36.378Z,8.73
2022-11-08T03:10:46.405Z,8.73
2022-11-08T03:10:56.378Z,8.75
2022-11-08T03:11:06.379Z,8.75
2022-11-08T03:11:16.395Z,8.75
2022-11-08T03:11:26.380Z,8.76
2022-11-08T03:11:36.386Z,8.75
2022-11-08T03:11:46.386Z,8.75
2022-11-08T03:11:56.385Z,8.78
2022-11-08T03:12:06.393Z,8.76
2022-11-08T03:12:16.400Z,8.73
2022-11-08T03:12:26.583Z,8.78
2022-11-08T03:12:36.388Z,8.76
2022-11-08T03:12:46.385Z,8.76
2022-11-08T03:12:56.386Z,8.75
2022-11-08T03:13:06.401Z,8.73
2022-11-08T03:13:16.395Z,8.76
2022-11-08T03:13:26.406Z,8.75
2022-11-08T03:13:36.392Z,8.73
2022-11-08T03:13:46.397Z,8.75
2022-11-08T03:13:56.392Z,8.73
2022-11-08T03:14:06.404Z,8.75
2022-11-08T03:14:16.401Z,8.76
2022-11-08T03:14:26.396Z,8.76
2022-11-08T03:14:36.404Z,8.75
2022-11-08T03:14:46.439Z,8.73
2022-11-08T03:14:56.393Z,8.75
2022-11-08T03:15:06.401Z,8.75
2022-11-08T03:15:16.394Z,8.75
2022-11-08T03:15:26.393Z,8.73
2022-11-08T03:15:36.400Z,8.73
2022-11-08T03:15:46.396Z,8.71
2022-11-08T03:15:56.400Z,8.75
2022-11-08T03:16:06.429Z,8.71
2022-11-08T03:16:16.399Z,8.70
2022-11-08T03:16:26.401Z,8.71
2022-11-08T03:47:05.204Z,8.43
2022-11-08T03:47:15.249Z,8.42
2022-11-08T03:47:25.194Z,8.43
2022-11-08T03:47:35.194Z,8.43
2022-11-08T03:47:45.244Z,8.43
2022-11-08T03:47:55.189Z,8.43
2022-11-08T03:48:05.203Z,8.45
2022-11-08T03:48:15.466Z,8.45
2022-11-08T03:48:25.194Z,8.45
2022-11-08T03:48:35.201Z,8.47
2022-11-08T03:48:45.204Z,8.46
2022-11-08T03:48:55.219Z,8.46
2022-11-08T03:49:05.255Z,8.46
2022-11-08T03:49:15.199Z,8.46
2022-11-08T03:49:25.208Z,8.47
2022-11-08T03:49:35.202Z,8.47
2022-11-08T03:49:45.208Z,8.47
2022-11-08T03:49:55.202Z,8.47
2022-11-08T03:50:05.255Z,8.47
2022-11-08T03:50:15.210Z,8.47
2022-11-08T03:50:25.204Z,8.46
2022-11-08T03:50:35.208Z,8.46
2022-11-08T03:50:45.213Z,8.47
2022-11-08T03:50:55.209Z,8.46
2022-11-08T03:51:05.211Z,8.45
2022-11-08T03:51:15.207Z,8.43
2022-11-08T03:51:25.282Z,8.43
2022-11-08T03:51:35.224Z,8.42
2022-11-08T03:51:45.209Z,8.42
2022-11-08T03:51:55.216Z,8.45
2022-11-08T03:52:05.219Z,8.43
2022-11-08T03:58:16.048Z,8.22
2022-11-08T03:58:25.258Z,8.24
2022-11-08T03:58:35.263Z,8.22
2022-11-08T03:58:45.278Z,8.22
2022-11-08T03:58:55.261Z,8.22
2022-11-08T03:59:05.305Z,8.24
2022-11-08T03:59:15.272Z,8.24
2022-11-08T03:59:25.263Z,8.24
2022-11-08T03:59:35.260Z,8.22
2022-11-08T03:59:45.263Z,8.24
2022-11-08T03:59:55.268Z,8.24
2022-11-08T04:00:05.342Z,8.25
2022-11-08T04:00:15.263Z,8.25
2022-11-08T04:00:25.333Z,8.25
2022-11-08T04:00:35.272Z,8.25
2022-11-08T04:00:45.270Z,8.27
2022-11-08T04:00:55.301Z,8.27
2022-11-08T04:01:05.319Z,8.27
2022-11-08T04:01:15.318Z,8.28
2022-11-08T04:01:25.366Z,8.27
2022-11-08T04:01:35.393Z,8.27
2022-11-08T04:01:45.451Z,8.28
2022-11-08T04:01:55.432Z,8.28
2022-11-08T04:02:05.364Z,8.27
2022-11-08T04:02:15.474Z,8.28
2022-11-08T04:02:25.341Z,8.25
2022-11-08T04:02:35.364Z,8.27
2022-11-08T04:02:45.334Z,8.25
2022-11-08T04:02:55.288Z,8.25
2022-11-08T04:03:05.304Z,8.27
2022-11-08T04:03:15.299Z,8.25
2022-11-08T04:03:25.298Z,8.25
2022-11-08T04:03:35.288Z,8.27
2022-11-08T04:03:45.322Z,8.25
2022-11-08T04:03:55.286Z,8.25
2022-11-08T04:04:05.293Z,8.25
2022-11-08T04:04:15.288Z,8.24
2022-11-08T04:04:25.302Z,8.24
2022-11-08T04:04:35.292Z,8.25
2022-11-08T04:04:45.290Z,8.24
2022-11-08T04:04:55.290Z,8.24
2022-11-08T04:05:05.295Z,8.24
2022-11-08T04:05:15.291Z,8.22
2022-11-08T04:05:25.326Z,8.24
2022-11-08T04:05:35.304Z,8.22
2022-11-08T04:05:45.302Z,8.22
2022-11-08T04:05:55.296Z,8.24
2022-11-08T04:06:05.300Z,8.21
2022-11-08T04:06:15.293Z,8.22
2022-11-08T04:06:25.304Z,8.24
2022-11-08T04:06:35.306Z,8.24
2022-11-08T04:06:45.350Z,8.24
2022-11-08T04:06:55.313Z,8.22
2022-11-08T04:07:05.304Z,8.24
2022-11-08T04:07:15.300Z,8.24
2022-11-08T04:07:25.302Z,8.24
2022-11-08T04:07:35.318Z,8.24
2022-11-08T04:07:45.301Z,8.24
2022-11-08T04:07:55.338Z,8.22